createdAt,value
2022-10-22T00:00:50.457Z,14.52
2022-10-22T00:03:18.029Z,14.30
2022-10-22T00:05:45.742Z,14.40
2022-10-22T00:08:15.072Z,14.85
2022-10-22T00:10:42.739Z,13.70
2022-10-22T00:13:11.504Z,14.20
2022-10-22T00:15:39.362Z,13.88
2022-10-22T00:18:07.150Z,13.88
2022-10-22T00:20:34.936Z,14.20
2022-10-22T00:23:02.750Z,14.38
2022-10-22T00:25:32.121Z,13.40
2022-10-22T00:27:59.692Z,12.82
2022-10-22T00:30:27.417Z,13.90
2022-10-22T00:32:54.982Z,15.30
2022-10-22T00:35:22.544Z,13.07
2022-10-22T00:37:50.206Z,14.13
2022-10-22T00:40:17.883Z,14.07
2022-10-22T00:42:46.753Z,14.70
2022-10-22T00:45:21.300Z,13.95
2022-10-22T00:47:54.312Z,13.25
2022-10-22T00:50:25.717Z,14.40
2022-10-22T00:52:53.709Z,14.38
2022-10-22T00:55:22.446Z,14.30
2022-10-22T00:57:52.001Z,14.63
2022-10-22T01:00:20.199Z,13.43
2022-10-22T01:02:49.781Z,13.82
2022-10-22T01:05:17.678Z,13.95
2022-10-22T01:07:48.803Z,14.13
2022-10-22T01:10:27.900Z,14.32
2022-10-22T01:13:06.908Z,13.40
2022-10-22T01:15:50.183Z,13.45
2022-10-22T01:18:24.051Z,14.07
2022-10-22T01:21:04.585Z,13.90
2022-10-22T01:24:06.993Z,13.93
2022-10-22T01:26:48.422Z,14.38
2022-10-22T01:29:21.501Z,14.73
2022-10-22T01:31:54.404Z,13.57
2022-10-22T01:34:24.060Z,12.65
2022-10-22T01:36:53.906Z,14.13
2022-10-22T01:39:23.279Z,13.90
2022-10-22T01:41:59.147Z,13.77
2022-10-22T01:44:31.151Z,13.30
2022-10-22T01:47:13.264Z,14.38
2022-10-22T01:49:57.753Z,14.65
2022-10-22T01:52:35.889Z,13.63
2022-10-22T01:55:11.561Z,13.27
2022-10-22T01:57:45.225Z,13.77
2022-10-22T02:00:16.292Z,15.48
2022-10-22T02:02:50.072Z,14.02
2022-10-22T02:05:22.490Z,14.50
2022-10-22T02:07:55.303Z,15.65
2022-10-22T02:10:24.698Z,15.77
2022-10-22T02:12:56.341Z,14.35
2022-10-22T02:15:28.328Z,14.85
2022-10-22T02:17:58.025Z,14.70
2022-10-22T02:20:28.875Z,14.93
2022-10-22T02:22:57.359Z,14.80
2022-10-22T02:25:26.642Z,13.77
2022-10-22T02:28:01.521Z,13.63
2022-10-22T02:30:32.430Z,14.60
2022-10-22T02:33:06.062Z,14.65
2022-10-22T02:35:34.591Z,15.68
2022-10-22T02:38:02.992Z,14.25
2022-10-22T02:40:32.202Z,14.77
2022-10-22T02:43:01.007Z,14.52
2022-10-22T02:45:30.065Z,13.73
2022-10-22T02:47:57.824Z,14.25
2022-10-22T02:50:25.389Z,15.23
2022-10-22T02:52:53.107Z,14.23
2022-10-22T02:55:20.723Z,14.32
2022-10-22T02:57:48.368Z,13.30
2022-10-22T03:00:16.900Z,13.82
2022-10-22T03:02:45.765Z,13.13
2022-10-22T03:05:13.571Z,13.27
2022-10-22T03:07:41.277Z,14.02
2022-10-22T03:10:10.140Z,14.45
2022-10-22T03:12:37.735Z,14.10
2022-10-22T03:15:06.171Z,13.73
2022-10-22T03:17:33.859Z,14.88
2022-10-22T03:20:02.941Z,12.98
2022-10-22T03:22:38.933Z,12.75
2022-10-22T03:25:12.057Z,12.43
2022-10-22T03:27:41.462Z,14.15
2022-10-22T03:30:10.490Z,13.88
2022-10-22T03:32:38.079Z,13.35
2022-10-22T03:35:07.594Z,13.43
2022-10-22T03:37:37.074Z,14.15
2022-10-22T03:40:07.484Z,13.82
2022-10-22T03:42:35.203Z,13.63
2022-10-22T03:45:02.857Z,12.52
2022-10-22T03:47:30.552Z,14.20
2022-10-22T03:49:58.168Z,14.43
2022-10-22T03:52:27.053Z,13.30
2022-10-22T03:54:54.715Z,12.70
2022-10-22T03:57:22.287Z,14.60
2022-10-22T03:59:50.943Z,13.85
2022-10-22T04:02:18.644Z,14.35
2022-10-22T04:04:46.206Z,14.15
2022-10-22T04:07:13.871Z,14.93
2022-10-22T04:09:42.825Z,14.70
2022-10-22T04:12:10.799Z,15.02
2022-10-22T04:14:38.331Z,14.15
2022-10-22T04:17:05.906Z,15.07
2022-10-22T04:19:33.844Z,14.77
2022-10-22T04:22:01.853Z,14.27
2022-10-22T04:24:31.080Z,14.23
2022-10-22T04:27:00.240Z,14.57
2022-10-22T04:29:28.025Z,15.23
2022-10-22T04:31:55.540Z,15.77
2022-10-22T04:34:23.121Z,16.85
2022-10-22T04:36:50.747Z,16.38
2022-10-22T04:39:18.252Z,14.70
2022-10-22T04:41:45.770Z,15.18
2022-10-22T04:44:17.706Z,15.50
2022-10-22T04:46:46.273Z,14.63
2022-10-22T04:49:14.429Z,16.08
2022-10-22T04:51:42.152Z,18.13
2022-10-22T04:54:09.861Z,14.35
2022-10-22T04:56:37.384Z,15.02
2022-10-22T04:59:06.796Z,14.48
2022-10-22T05:01:40.177Z,13.63
2022-10-22T05:04:13.374Z,14.68
2022-10-22T05:06:41.126Z,14.18
2022-10-22T05:09:12.260Z,15.32
2022-10-22T05:11:45.276Z,14.63
2022-10-22T05:14:13.857Z,14.32
2022-10-22T05:16:43.039Z,15.05
2022-10-22T05:19:17.140Z,13.50
2022-10-22T05:21:44.671Z,14.80
2022-10-22T05:24:12.284Z,15.13
2022-10-22T05:26:39.848Z,13.48
2022-10-22T05:29:07.498Z,15.45
2022-10-22T05:31:35.542Z,14.63
2022-10-22T05:34:04.533Z,14.95
2022-10-22T05:36:32.043Z,15.38
2022-10-22T05:38:59.765Z,15.80
2022-10-22T05:41:29.022Z,16.20
2022-10-22T05:43:57.857Z,15.07
2022-10-22T05:46:27.531Z,15.95
2022-10-22T05:48:57.116Z,16.13
2022-10-22T05:51:27.465Z,15.98
2022-10-22T05:53:57.302Z,15.25
2022-10-22T05:56:25.839Z,14.73
2022-10-22T05:58:53.631Z,16.10
2022-10-22T06:01:23.132Z,16.27
2022-10-22T06:03:53.669Z,15.60
2022-10-22T06:06:23.461Z,15.40
2022-10-22T06:08:54.494Z,16.50
2022-10-22T06:11:24.038Z,14.73
2022-10-22T06:13:52.695Z,17.02
2022-10-22T06:16:20.336Z,17.35
2022-10-22T06:18:47.893Z,17.60
2022-10-22T06:21:17.208Z,17.50
2022-10-22T06:23:45.282Z,16.83
2022-10-22T06:26:14.220Z,17.40
2022-10-22T06:28:41.757Z,17.30
2022-10-22T06:31:10.566Z,16.20
2022-10-22T06:33:42.341Z,17.20
2022-10-22T06:36:12.373Z,17.25
2022-10-22T06:38:40.294Z,17.27
2022-10-22T06:41:09.876Z,15.63
2022-10-22T06:43:39.185Z,15.38
2022-10-22T06:46:09.762Z,16.23
2022-10-22T06:48:38.351Z,16.05
2022-10-22T06:51:07.504Z,15.45
2022-10-22T06:53:35.970Z,16.05
2022-10-22T06:56:06.292Z,16.08
2022-10-22T06:58:33.980Z,15.35
2022-10-22T07:01:04.472Z,16.52
2022-10-22T07:03:32.175Z,15.85
2022-10-22T07:06:00.888Z,14.65
2022-10-22T07:08:28.497Z,16.25
2022-10-22T07:10:56.639Z,15.45
2022-10-22T07:13:24.324Z,15.88
2022-10-22T07:15:55.565Z,16.55
2022-10-22T07:18:24.569Z,15.43
2022-10-22T07:20:52.286Z,14.85
2022-10-22T07:23:20.156Z,15.13
2022-10-22T07:25:48.095Z,16.20
2022-10-22T07:28:15.842Z,15.27
2022-10-22T07:30:43.466Z,14.93
2022-10-22T07:33:11.508Z,14.98
2022-10-22T07:35:41.124Z,14.95
2022-10-22T07:38:09.790Z,14.15
2022-10-22T07:40:37.600Z,13.70
2022-10-22T07:43:06.151Z,15.10
2022-10-22T07:45:34.327Z,14.18
2022-10-22T07:48:02.292Z,15.65
2022-10-22T07:50:30.063Z,14.68
2022-10-22T07:52:59.206Z,15.52
2022-10-22T07:55:27.202Z,15.10
2022-10-22T07:57:54.838Z,14.77
2022-10-22T08:00:25.245Z,14.02
2022-10-22T08:02:53.320Z,16.10
2022-10-22T08:05:20.994Z,12.55
2022-10-22T08:07:48.631Z,14.52
2022-10-22T08:10:17.748Z,14.13
2022-10-22T08:12:45.387Z,13.48
2022-10-22T08:15:12.969Z,13.23
2022-10-22T08:17:40.905Z,15.68
2022-10-22T08:20:09.827Z,13.52
2022-10-22T08:22:37.534Z,14.05
2022-10-22T08:25:05.953Z,14.32
2022-10-22T08:27:35.002Z,13.30
2022-10-22T08:30:02.890Z,12.70
2022-10-22T08:32:30.500Z,13.30
2022-10-22T08:34:58.141Z,11.43
2022-10-22T08:37:25.931Z,11.50
2022-10-22T08:39:53.493Z,10.05
2022-10-22T08:42:57.678Z,11.88
2022-10-22T08:45:31.295Z,12.60
2022-10-22T08:48:10.963Z,12.95
2022-10-22T08:50:42.879Z,10.10
2022-10-22T08:53:16.527Z,11.23
2022-10-22T08:55:44.930Z,13.65
2022-10-22T08:58:22.898Z,10.40
2022-10-22T09:00:58.065Z,11.30
2022-10-22T09:03:34.752Z,12.32
2022-10-22T09:06:09.949Z,10.80
2022-10-22T09:08:38.648Z,9.82
2022-10-22T09:11:17.207Z,13.93
2022-10-22T09:13:47.400Z,9.75
2022-10-22T09:16:18.237Z,10.43
2022-10-22T09:18:59.724Z,9.02
2022-10-22T09:21:35.172Z,9.40
2022-10-22T09:24:10.485Z,10.40
2022-10-22T09:26:40.902Z,8.02
2022-10-22T09:29:18.224Z,8.13
2022-10-22T09:31:46.259Z,7.40
2022-10-22T09:34:16.017Z,8.07
2022-10-22T09:36:43.651Z,8.70
2022-10-22T09:39:24.169Z,7.75
2022-10-22T09:41:52.007Z,9.55
2022-10-22T09:44:21.702Z,7.70
2022-10-22T09:46:49.544Z,9.35
2022-10-22T09:49:19.254Z,7.25
2022-10-22T09:51:51.937Z,5.65
2022-10-22T09:54:21.910Z,7.18
2022-10-22T09:56:56.175Z,7.60
2022-10-22T09:59:33.387Z,7.80
2022-10-22T10:02:13.777Z,7.68
2022-10-22T10:04:50.065Z,4.70
2022-10-22T10:07:20.000Z,6.55
2022-10-22T10:09:48.280Z,7.13
2022-10-22T10:12:37.561Z,5.70
2022-10-22T10:15:19.276Z,6.43
2022-10-22T10:17:52.060Z,5.00
2022-10-22T10:20:30.434Z,4.70
2022-10-22T10:23:07.365Z,4.45
2022-10-22T10:25:49.609Z,4.80
2022-10-22T10:28:34.562Z,3.58
2022-10-22T10:31:16.098Z,3.63
2022-10-22T10:33:50.702Z,5.18
2022-10-22T10:36:25.642Z,3.55
2022-10-22T10:38:59.866Z,3.85
2022-10-22T10:41:38.819Z,3.38
2022-10-22T10:44:28.427Z,5.95
2022-10-22T10:47:07.768Z,3.30
2022-10-22T10:49:37.218Z,3.53
2022-10-22T10:52:18.975Z,6.80
2022-10-22T10:55:00.593Z,5.43
2022-10-22T10:57:39.405Z,5.80
2022-10-22T11:00:10.596Z,6.63
2022-10-22T11:03:05.950Z,4.53
2022-10-22T11:05:40.216Z,3.55
2022-10-22T11:08:14.666Z,6.07
2022-10-22T11:10:47.351Z,3.80
2022-10-22T11:13:29.170Z,3.85
2022-10-22T11:16:01.967Z,4.47
2022-10-22T11:18:36.530Z,3.13
2022-10-22T11:21:15.237Z,2.97
2022-10-22T11:23:50.537Z,3.30
2022-10-22T11:26:30.466Z,6.50
2022-10-22T11:29:01.346Z,4.03
2022-10-22T11:31:31.938Z,4.00
2022-10-22T11:34:28.542Z,3.20
2022-10-22T11:36:56.226Z,5.47
2022-10-22T11:39:43.101Z,3.85
2022-10-22T11:42:13.506Z,3.08
2022-10-22T11:45:00.887Z,4.10
2022-10-22T11:47:30.446Z,3.47
2022-10-22T11:50:17.039Z,5.85
2022-10-22T11:52:55.289Z,3.42
2022-10-22T11:55:45.597Z,3.70
2022-10-22T11:58:32.630Z,5.20
2022-10-22T12:01:22.264Z,5.10
2022-10-22T12:03:52.168Z,4.60
2022-10-22T12:06:24.261Z,3.72
2022-10-22T12:09:01.315Z,3.50
2022-10-22T12:11:36.999Z,4.30
2022-10-22T12:14:17.221Z,6.25
2022-10-22T12:17:02.748Z,4.20
2022-10-22T12:19:33.581Z,4.00
2022-10-22T12:22:13.902Z,5.43
2022-10-22T12:24:45.061Z,7.53
2022-10-22T12:27:22.686Z,5.65
2022-10-22T12:29:55.031Z,4.80
2022-10-22T12:32:22.770Z,5.03
2022-10-22T12:34:52.908Z,5.68
2022-10-22T12:37:24.896Z,6.70
2022-10-22T12:39:52.550Z,6.50
2022-10-22T12:42:21.907Z,4.53
2022-10-22T12:44:49.505Z,4.80
2022-10-22T12:47:19.093Z,5.55
2022-10-22T12:49:51.028Z,5.95
2022-10-22T12:52:23.704Z,5.10
2022-10-22T12:54:54.760Z,9.43
2022-10-22T12:57:24.641Z,4.15
2022-10-22T12:59:52.951Z,5.07
2022-10-22T13:02:23.925Z,4.20
2022-10-22T13:05:16.770Z,5.43
2022-10-22T13:07:49.227Z,4.32
2022-10-22T13:10:21.292Z,4.45
2022-10-22T13:12:55.516Z,4.50
2022-10-22T13:15:35.449Z,4.00
2022-10-22T13:18:05.577Z,4.15
2022-10-22T13:20:37.204Z,4.10
2022-10-22T13:23:06.824Z,3.45
2022-10-22T13:25:35.816Z,3.72
2022-10-22T13:28:21.299Z,3.00
2022-10-22T13:30:54.162Z,3.25
2022-10-22T13:33:27.044Z,2.92
2022-10-22T13:35:55.770Z,3.80
2022-10-22T13:38:26.605Z,3.50
2022-10-22T13:40:54.391Z,4.10
2022-10-22T13:43:22.346Z,4.03
2022-10-22T13:45:54.790Z,3.30
2022-10-22T13:48:24.667Z,3.33
2022-10-22T13:50:53.608Z,3.97
2022-10-22T13:53:26.637Z,3.85
2022-10-22T13:55:54.439Z,3.65
2022-10-22T13:58:24.703Z,3.60
2022-10-22T14:00:57.571Z,3.47
2022-10-22T14:03:28.973Z,5.90
2022-10-22T14:05:57.024Z,6.95
2022-10-22T14:08:27.790Z,5.95
2022-10-22T14:10:55.714Z,4.32
2022-10-22T14:13:23.523Z,5.13
2022-10-22T14:15:52.764Z,3.97
2022-10-22T14:18:25.493Z,4.07
2022-10-22T14:20:55.901Z,4.43
2022-10-22T14:23:28.008Z,4.18
2022-10-22T14:25:56.585Z,4.30
2022-10-22T14:28:24.380Z,4.00
2022-10-22T14:30:52.706Z,5.20
2022-10-22T14:33:25.703Z,3.55
2022-10-22T14:35:55.105Z,4.85
2022-10-22T14:38:23.195Z,3.33
2022-10-22T14:40:52.626Z,3.85
2022-10-22T14:43:23.213Z,4.50
2022-10-22T14:45:51.203Z,4.65
2022-10-22T14:50:49.333Z,5.05
2022-10-22T14:53:18.538Z,5.43
2022-10-22T14:55:49.058Z,3.80
2022-10-22T14:58:22.999Z,3.88
2022-10-22T15:00:54.859Z,3.35
2022-10-22T15:03:23.602Z,5.18
2022-10-22T15:05:55.867Z,3.97
2022-10-22T15:08:24.591Z,4.57
2022-10-22T15:10:59.757Z,4.70
2022-10-22T15:13:30.060Z,4.05
2022-10-22T15:16:02.342Z,4.70
2022-10-22T15:18:39.627Z,4.10
2022-10-22T15:21:09.240Z,4.78
2022-10-22T15:23:39.157Z,4.85
2022-10-22T15:26:09.039Z,4.75
2022-10-22T15:28:39.208Z,6.03
2022-10-22T15:31:08.234Z,6.07
2022-10-22T15:33:35.940Z,5.22
2022-10-22T15:36:11.751Z,3.85
2022-10-22T15:38:39.429Z,5.03
2022-10-22T15:41:10.030Z,3.10
2022-10-22T15:43:39.295Z,2.92
2022-10-22T15:46:11.788Z,4.00
2022-10-22T15:48:39.638Z,4.82
2022-10-22T15:51:11.923Z,9.65
2022-10-22T15:53:40.126Z,8.57
2022-10-22T15:56:11.790Z,7.57
2022-10-22T15:58:40.764Z,9.27
2022-10-22T16:01:10.248Z,7.00
2022-10-22T16:03:39.126Z,7.22
2022-10-22T16:06:09.090Z,9.52
2022-10-22T16:08:37.652Z,7.38
2022-10-22T16:11:05.838Z,8.23
2022-10-22T16:13:33.420Z,8.50
2022-10-22T16:16:06.936Z,6.32
2022-10-22T16:18:34.599Z,6.93
2022-10-22T16:21:02.306Z,7.30
2022-10-22T16:23:30.077Z,6.30
2022-10-22T16:25:57.670Z,5.53
2022-10-22T16:28:25.368Z,4.95
2022-10-22T16:30:53.274Z,5.50
2022-10-22T16:33:22.279Z,6.82
2022-10-22T16:35:49.908Z,7.18
2022-10-22T16:38:21.782Z,7.63
2022-10-22T16:40:52.535Z,6.93
2022-10-22T16:43:20.375Z,7.18
2022-10-22T16:45:48.850Z,8.32
2022-10-22T16:48:16.607Z,7.82
2022-10-22T16:50:46.394Z,6.90
2022-10-22T16:53:14.077Z,6.32
2022-10-22T16:55:43.516Z,8.07
2022-10-22T16:58:15.164Z,6.68
2022-10-22T17:00:43.067Z,7.40
2022-10-22T17:03:12.185Z,6.32
2022-10-22T17:05:40.138Z,6.10
2022-10-22T17:08:09.173Z,8.55
2022-10-22T17:10:37.546Z,6.53
2022-10-22T17:13:05.733Z,9.23
2022-10-22T17:15:33.627Z,8.50
2022-10-22T17:18:01.705Z,8.38
2022-10-22T17:20:29.343Z,9.70
2022-10-22T17:22:57.041Z,10.05
2022-10-22T17:25:36.310Z,8.60
2022-10-22T17:28:04.064Z,9.63
2022-10-22T17:30:31.758Z,9.57
2022-10-22T17:32:59.403Z,10.73
2022-10-22T17:37:59.799Z,9.98
2022-10-22T17:40:28.889Z,12.45
2022-10-22T17:42:57.170Z,10.80
2022-10-22T17:45:24.965Z,9.00
2022-10-22T17:47:52.939Z,7.57
2022-10-22T17:50:20.910Z,10.60
2022-10-22T17:52:48.614Z,12.70
2022-10-22T17:55:16.319Z,12.68
2022-10-22T17:57:45.467Z,14.98
2022-10-22T18:00:16.121Z,15.15
2022-10-22T18:02:44.223Z,15.32
2022-10-22T18:05:13.302Z,14.45
2022-10-22T18:07:42.042Z,13.68
2022-10-22T18:10:10.799Z,14.27
2022-10-22T18:12:38.622Z,13.02
2022-10-22T18:15:09.006Z,13.07
2022-10-22T18:17:40.191Z,14.65
2022-10-22T18:20:09.052Z,11.25
2022-10-22T18:22:36.992Z,9.05
2022-10-22T18:25:05.684Z,10.63
2022-10-22T18:27:33.651Z,9.82
2022-10-22T18:30:01.309Z,9.88
2022-10-22T18:32:32.193Z,9.32
2022-10-22T18:34:59.988Z,8.82
2022-10-22T18:37:27.659Z,8.00
2022-10-22T18:39:55.344Z,10.05
2022-10-22T18:42:24.635Z,9.40
2022-10-22T18:44:54.025Z,8.82
2022-10-22T18:47:21.642Z,8.77
2022-10-22T18:49:51.718Z,7.65
2022-10-22T18:52:19.348Z,6.03
2022-10-22T18:54:46.879Z,6.53
2022-10-22T18:57:14.454Z,6.40
2022-10-22T18:59:42.057Z,7.60
2022-10-22T19:02:10.230Z,8.20
2022-10-22T19:04:38.198Z,6.93
2022-10-22T19:07:07.261Z,8.73
2022-10-22T19:09:35.276Z,7.93
2022-10-22T19:12:03.008Z,6.53
2022-10-22T19:14:30.621Z,6.68
2022-10-22T19:16:58.287Z,7.13
2022-10-22T19:19:25.981Z,7.38
2022-10-22T19:21:53.589Z,8.63
2022-10-22T19:24:22.560Z,9.98
2022-10-22T19:26:50.790Z,11.57
2022-10-22T19:29:20.684Z,8.38
2022-10-22T19:31:50.458Z,8.05
2022-10-22T19:34:18.300Z,8.75
2022-10-22T19:36:46.118Z,8.45
2022-10-22T19:39:17.181Z,9.50
2022-10-22T19:41:46.165Z,9.57
2022-10-22T19:44:13.900Z,7.78
2022-10-22T19:46:41.525Z,7.57
2022-10-22T19:49:09.238Z,7.07
2022-10-22T19:51:37.734Z,7.82
2022-10-22T19:54:07.887Z,7.55
2022-10-22T19:56:37.567Z,7.72
2022-10-22T19:59:06.957Z,9.10
2022-10-22T20:01:35.202Z,10.35
2022-10-22T20:04:02.994Z,10.25
2022-10-22T20:06:31.475Z,9.73
2022-10-22T20:08:59.378Z,10.20
2022-10-22T20:11:29.447Z,8.50
2022-10-22T20:13:58.250Z,8.43
2022-10-22T20:16:29.895Z,7.15
2022-10-22T20:19:00.965Z,7.38
2022-10-22T20:21:28.633Z,7.15
2022-10-22T20:23:57.216Z,7.35
2022-10-22T20:26:27.884Z,6.47
2022-10-22T20:28:55.929Z,6.65
2022-10-22T20:31:26.597Z,6.18
2022-10-22T20:33:57.352Z,7.20
2022-10-22T20:36:26.325Z,7.63
2022-10-22T20:38:54.030Z,7.07
2022-10-22T20:41:23.969Z,7.32
2022-10-22T20:43:52.727Z,6.30
2022-10-22T20:46:23.019Z,7.25
2022-10-22T20:48:51.998Z,8.18
2022-10-22T20:51:21.115Z,9.60
2022-10-22T20:53:49.227Z,9.82
2022-10-22T20:56:18.061Z,9.98
2022-10-22T20:58:48.463Z,10.30
2022-10-22T21:01:21.398Z,10.38
2022-10-22T21:03:49.922Z,10.25
2022-10-22T21:06:18.117Z,9.27
2022-10-22T21:08:47.232Z,8.55
2022-10-22T21:11:14.950Z,8.65
2022-10-22T21:13:43.061Z,8.15
2022-10-22T21:16:12.508Z,10.38
2022-10-22T21:18:40.516Z,11.65
2022-10-22T21:21:09.740Z,9.88
2022-10-22T21:23:37.821Z,9.73
2022-10-22T21:26:07.430Z,8.98
2022-10-22T21:28:37.677Z,8.65
2022-10-22T21:31:06.604Z,8.80
2022-10-22T21:33:36.747Z,9.05
2022-10-22T21:36:04.756Z,8.07
2022-10-22T21:38:32.501Z,9.32
2022-10-22T21:41:00.146Z,9.10
2022-10-22T21:43:29.118Z,9.73
2022-10-22T21:46:08.197Z,8.57
2022-10-22T21:48:37.218Z,8.73
2022-10-22T21:51:09.206Z,8.85
2022-10-22T21:53:38.208Z,8.63
2022-10-22T21:56:07.339Z,10.77
2022-10-22T21:58:36.639Z,12.25
2022-10-22T22:01:04.960Z,12.95
2022-10-22T22:03:32.549Z,10.40
2022-10-22T22:06:00.894Z,9.98
2022-10-22T22:08:29.415Z,10.55
2022-10-22T22:11:02.226Z,9.93
2022-10-22T22:13:29.927Z,9.82
2022-10-22T22:16:02.403Z,9.25
2022-10-22T22:18:30.600Z,8.73
2022-10-22T22:20:59.083Z,9.18
2022-10-22T22:23:27.433Z,10.65
2022-10-22T22:25:59.584Z,10.32
2022-10-22T22:28:27.878Z,9.68
2022-10-22T22:30:55.539Z,10.10
2022-10-22T22:33:24.918Z,9.48
2022-10-22T22:35:52.647Z,9.75
2022-10-22T22:38:20.261Z,10.27
2022-10-22T22:40:47.957Z,10.32
2022-10-22T22:43:15.483Z,11.45
2022-10-22T22:45:43.143Z,10.75
2022-10-22T22:48:10.776Z,11.80
2022-10-22T22:50:39.706Z,10.63
2022-10-22T22:53:07.253Z,10.18
2022-10-22T22:55:34.927Z,9.65
2022-10-22T22:58:02.428Z,11.65
2022-10-22T23:00:30.004Z,10.75
2022-10-22T23:02:57.677Z,11.40
2022-10-22T23:05:25.376Z,11.25
2022-10-22T23:07:54.353Z,10.75
2022-10-22T23:10:22.182Z,10.48
2022-10-22T23:12:50.786Z,10.57
2022-10-22T23:15:18.403Z,8.75
2022-10-22T23:17:45.934Z,11.10
2022-10-22T23:20:13.725Z,11.15
2022-10-22T23:22:41.693Z,11.35
2022-10-22T23:25:11.143Z,11.15
2022-10-22T23:27:38.734Z,10.25
2022-10-22T23:30:07.465Z,10.38
2022-10-22T23:32:35.030Z,10.13
2022-10-22T23:35:02.553Z,10.30
2022-10-22T23:37:30.075Z,9.88
2022-10-22T23:39:57.983Z,11.63
2022-10-22T23:42:27.616Z,11.45
2022-10-22T23:44:55.350Z,11.60
2022-10-22T23:47:22.907Z,10.98
2022-10-22T23:49:50.475Z,10.52
2022-10-22T23:52:18.055Z,10.55
2022-10-22T23:54:45.644Z,9.52
2022-10-22T23:57:13.229Z,9.85
2022-10-22T23:59:42.202Z,10.05
